sensor_id;sensor_type;location;lat;lon;timestamp;pressure;altitude;pressure_sealevel;temperature;humidity
8049;BME280;20935;42.660;23.342;2023-08-07T12:09:49;94207.22;;;28.60;41.10
8049;BME280;20935;42.660;23.342;2023-08-07T13:41:16;94257.31;;;28.02;36.76
8049;BME280;20935;42.660;23.342;2023-08-07T13:44:07;94250.75;;;28.05;37.18
8049;BME280;20935;42.660;23.342;2023-08-07T13:46:54;94252.25;;;28.06;38.62
8049;BME280;20935;42.660;23.342;2023-08-07T13:49:22;94242.72;;;28.07;38.50
8049;BME280;20935;42.660;23.342;2023-08-07T13:52:09;94245.00;;;28.09;38.21
8049;BME280;20935;42.660;23.342;2023-08-07T13:54:54;94256.75;;;28.09;37.95
8049;BME280;20935;42.660;23.342;2023-08-07T13:57:41;94264.75;;;28.07;38.44
8049;BME280;20935;42.660;23.342;2023-08-07T14:00:26;94269.00;;;28.08;37.78
8049;BME280;20935;42.660;23.342;2023-08-07T14:03:12;94278.53;;;28.07;38.04
8049;BME280;20935;42.660;23.342;2023-08-07T14:05:58;94285.81;;;28.05;37.94
8049;BME280;20935;42.660;23.342;2023-08-07T14:08:43;94286.56;;;28.05;37.13
8049;BME280;20935;42.660;23.342;2023-08-07T14:11:29;94290.06;;;28.06;37.59
8049;BME280;20935;42.660;23.342;2023-08-07T14:14:16;94291.84;;;28.03;37.10
8049;BME280;20935;42.660;23.342;2023-08-07T14:17:02;94295.13;;;28.01;36.75
8049;BME280;20935;42.660;23.342;2023-08-07T14:19:47;94292.06;;;28.05;37.25
8049;BME280;20935;42.660;23.342;2023-08-07T14:22:32;94288.06;;;28.06;37.54
8049;BME280;20935;42.660;23.342;2023-08-07T14:25:20;94300.34;;;28.05;37.74
8049;BME280;20935;42.660;23.342;2023-08-07T14:28:06;94299.09;;;28.06;37.25
8049;BME280;20935;42.660;23.342;2023-08-07T14:30:56;94300.84;;;28.03;37.58
8049;BME280;20935;42.660;23.342;2023-08-07T14:33:42;94308.66;;;27.99;37.32
8049;BME280;20935;42.660;23.342;2023-08-07T14:36:27;94313.41;;;27.99;37.59
8049;BME280;20935;42.660;23.342;2023-08-07T14:39:13;94306.72;;;27.94;37.44
8049;BME280;20935;42.660;23.342;2023-08-07T14:41:58;94307.22;;;27.93;37.49
8049;BME280;20935;42.660;23.342;2023-08-07T14:44:44;94313.78;;;27.90;37.59
8049;BME280;20935;42.660;23.342;2023-08-07T14:47:31;94312.28;;;27.89;36.86
8049;BME280;20935;42.660;23.342;2023-08-07T14:50:16;94324.34;;;27.86;36.49
8049;BME280;20935;42.660;23.342;2023-08-07T14:53:01;94320.38;;;27.81;36.64
8049;BME280;20935;42.660;23.342;2023-08-07T14:55:47;94321.59;;;27.86;37.44
8049;BME280;20935;42.660;23.342;2023-08-07T14:58:32;94318.59;;;27.84;38.28
8049;BME280;20935;42.660;23.342;2023-08-07T15:01:18;94318.81;;;27.86;37.90
8049;BME280;20935;42.660;23.342;2023-08-07T15:04:05;94314.56;;;27.85;38.02
8049;BME280;20935;42.660;23.342;2023-08-07T15:06:51;94326.84;;;27.84;37.53
8049;BME280;20935;42.660;23.342;2023-08-07T15:09:37;94320.38;;;27.81;37.48
8049;BME280;20935;42.660;23.342;2023-08-07T15:12:23;94320.88;;;27.80;37.64
8049;BME280;20935;42.660;23.342;2023-08-07T15:15:09;94322.41;;;27.75;36.99
8049;BME280;20935;42.660;23.342;2023-08-07T15:17:55;94316.19;;;27.75;37.41
8049;BME280;20935;42.660;23.342;2023-08-07T15:20:42;94315.44;;;27.74;36.94
8049;BME280;20935;42.660;23.342;2023-08-07T15:23:27;94312.69;;;27.74;36.83
8049;BME280;20935;42.660;23.342;2023-08-07T15:26:12;94314.25;;;27.70;36.36
8049;BME280;20935;42.660;23.342;2023-08-07T15:28:58;94308.47;;;27.68;36.34
8049;BME280;20935;42.660;23.342;2023-08-07T15:31:43;94312.44;;;27.72;37.25
8049;BME280;20935;42.660;23.342;2023-08-07T15:34:29;94314.69;;;27.74;39.04
8049;BME280;20935;42.660;23.342;2023-08-07T15:37:16;94316.66;;;27.79;40.01
8049;BME280;20935;42.660;23.342;2023-08-07T15:40:02;94311.56;;;27.83;40.62
8049;BME280;20935;42.660;23.342;2023-08-07T15:42:47;94319.78;;;27.88;40.74
8049;BME280;20935;42.660;23.342;2023-08-07T15:45:32;94314.75;;;27.92;41.21
8049;BME280;20935;42.660;23.342;2023-08-07T15:48:18;94321.47;;;27.97;41.84
8049;BME280;20935;42.660;23.342;2023-08-07T15:51:03;94328.94;;;28.02;41.38
8049;BME280;20935;42.660;23.342;2023-08-07T15:53:50;94329.13;;;28.04;42.32
8049;BME280;20935;42.660;23.342;2023-08-07T15:56:35;94321.59;;;28.10;42.35
8049;BME280;20935;42.660;23.342;2023-08-07T15:59:21;94315.56;;;28.12;42.41
8049;BME280;20935;42.660;23.342;2023-08-07T16:02:07;94313.78;;;28.14;41.90
8049;BME280;20935;42.660;23.342;2023-08-07T16:04:53;94315.50;;;28.17;42.10
8049;BME280;20935;42.660;23.342;2023-08-07T16:07:38;94311.69;;;28.20;42.41
8049;BME280;20935;42.660;23.342;2023-08-07T16:10:25;94320.22;;;28.22;42.52
8049;BME280;20935;42.660;23.342;2023-08-07T16:13:10;94322.13;;;28.27;42.50
8049;BME280;20935;42.660;23.342;2023-08-07T16:15:57;94319.09;;;28.31;42.57
8049;BME280;20935;42.660;23.342;2023-08-07T16:18:43;94316.78;;;28.35;43.69
8049;BME280;20935;42.660;23.342;2023-08-07T16:21:28;94326.78;;;28.38;43.52
8049;BME280;20935;42.660;23.342;2023-08-07T16:24:14;94340.47;;;28.43;43.04
8049;BME280;20935;42.660;23.342;2023-08-07T16:27:01;94351.50;;;28.43;43.13
8049;BME280;20935;42.660;23.342;2023-08-07T16:29:46;94349.72;;;28.46;43.08
8049;BME280;20935;42.660;23.342;2023-08-07T16:32:32;94356.50;;;28.45;43.21
8049;BME280;20935;42.660;23.342;2023-08-07T16:35:17;94361.78;;;28.43;43.31
8049;BME280;20935;42.660;23.342;2023-08-07T16:38:03;94360.81;;;28.40;43.89
8049;BME280;20935;42.660;23.342;2023-08-07T16:40:49;94369.09;;;28.40;43.90
8049;BME280;20935;42.660;23.342;2023-08-07T16:43:35;94369.09;;;28.40;44.29
8049;BME280;20935;42.660;23.342;2023-08-07T16:46:21;94367.81;;;28.41;43.69
8049;BME280;20935;42.660;23.342;2023-08-07T16:49:06;94368.56;;;28.42;44.10
8049;BME280;20935;42.660;23.342;2023-08-07T16:51:52;94372.28;;;28.44;43.95
8049;BME280;20935;42.660;23.342;2023-08-07T16:54:41;94374.28;;;28.44;44.12
8049;BME280;20935;42.660;23.342;2023-08-07T16:57:27;94368.28;;;28.45;44.10
8049;BME280;20935;42.660;23.342;2023-08-07T17:00:15;94355.25;;;28.46;44.83
8049;BME280;20935;42.660;23.342;2023-08-07T17:03:00;94360.00;;;28.45;44.59
8049;BME280;20935;42.660;23.342;2023-08-07T17:05:46;94364.25;;;28.46;44.75
8049;BME280;20935;42.660;23.342;2023-08-07T17:08:31;94360.00;;;28.45;44.37
8049;BME280;20935;42.660;23.342;2023-08-07T17:11:17;94360.22;;;28.47;44.86
8049;BME280;20935;42.660;23.342;2023-08-07T17:14:03;94360.00;;;28.45;44.53
8049;BME280;20935;42.660;23.342;2023-08-07T17:16:49;94368.78;;;28.44;44.48
8049;BME280;20935;42.660;23.342;2023-08-07T17:19:34;94355.00;;;28.44;44.47
8049;BME280;20935;42.660;23.342;2023-08-07T17:22:20;94350.75;;;28.43;44.67
8049;BME280;20935;42.660;23.342;2023-08-07T17:25:06;94361.78;;;28.43;44.71
8049;BME280;20935;42.660;23.342;2023-08-07T17:27:52;94350.75;;;28.43;45.07
8049;BME280;20935;42.660;23.342;2023-08-07T17:30:37;94352.78;;;28.42;44.94
8049;BME280;20935;42.660;23.342;2023-08-07T17:33:24;94357.56;;;28.42;44.59
8049;BME280;20935;42.660;23.342;2023-08-07T17:36:09;94370.03;;;28.43;44.46
8049;BME280;20935;42.660;23.342;2023-08-07T17:38:55;94372.06;;;28.42;44.66
8049;BME280;20935;42.660;23.342;2023-08-07T17:41:40;94366.56;;;28.42;44.71
8049;BME280;20935;42.660;23.342;2023-08-07T17:44:29;94374.09;;;28.42;45.05
8049;BME280;20935;42.660;23.342;2023-08-07T17:47:14;94369.09;;;28.40;44.88
8049;BME280;20935;42.660;23.342;2023-08-07T17:50:01;94368.34;;;28.40;45.62
8049;BME280;20935;42.660;23.342;2023-08-07T17:52:46;94365.06;;;28.41;45.32
8049;BME280;20935;42.660;23.342;2023-08-07T17:55:32;94369.09;;;28.40;44.91
8049;BME280;20935;42.660;23.342;2023-08-07T17:58:17;94374.59;;;28.40;45.48
8049;BME280;20935;42.660;23.342;2023-08-07T18:01:02;94384.88;;;28.40;45.50
8049;BME280;20935;42.660;23.342;2023-08-07T18:03:48;94375.84;;;28.39;45.12
8049;BME280;20935;42.660;23.342;2023-08-07T18:06:35;94381.91;;;28.38;45.31
8049;BME280;20935;42.660;23.342;2023-08-07T18:09:20;94394.38;;;28.39;45.40
8049;BME280;20935;42.660;23.342;2023-08-07T18:12:06;94405.41;;;28.39;45.71
8049;BME280;20935;42.660;23.342;2023-08-07T18:14:52;94399.69;;;28.37;45.81
8049;BME280;20935;42.660;23.342;2023-08-07T18:17:40;94398.44;;;28.38;45.88
8049;BME280;20935;42.660;23.342;2023-08-07T18:20:25;94397.69;;;28.37;45.60
8049;BME280;20935;42.660;23.342;2023-08-07T18:23:13;94408.69;;;28.37;45.32
8049;BME280;20935;42.660;23.342;2023-08-07T18:25:58;94420.97;;;28.36;45.81
8049;BME280;20935;42.660;23.342;2023-08-07T18:28:44;94436.25;;;28.37;45.35
8049;BME280;20935;42.660;23.342;2023-08-07T18:31:30;94429.25;;;28.36;45.46
8049;BME280;20935;42.660;23.342;2023-08-07T18:34:16;94446.53;;;28.37;46.25
8049;BME280;20935;42.660;23.342;2023-08-07T18:37:02;94444.28;;;28.35;45.94
8049;BME280;20935;42.660;23.342;2023-08-07T18:39:49;94436.03;;;28.35;46.10
8049;BME280;20935;42.660;23.342;2023-08-07T18:42:34;94434.00;;;28.36;46.01
8049;BME280;20935;42.660;23.342;2023-08-07T18:45:20;94435.81;;;28.33;45.57
8049;BME280;20935;42.660;23.342;2023-08-07T18:48:06;94433.56;;;28.32;45.50
8049;BME280;20935;42.660;23.342;2023-08-07T18:50:52;94440.31;;;28.31;45.48
8049;BME280;20935;42.660;23.342;2023-08-07T18:53:37;94445.09;;;28.30;45.95
8049;BME280;20935;42.660;23.342;2023-08-07T18:56:24;94432.59;;;28.29;45.73
8049;BME280;20935;42.660;23.342;2023-08-07T18:59:09;94437.34;;;28.29;46.29
8049;BME280;20935;42.660;23.342;2023-08-07T19:01:55;94431.09;;;28.28;46.19
8049;BME280;20935;42.660;23.342;2023-08-07T19:04:40;94433.84;;;28.28;45.80
8049;BME280;20935;42.660;23.342;2023-08-07T19:07:26;94443.38;;;28.27;45.88
8049;BME280;20935;42.660;23.342;2023-08-07T19:10:11;94445.38;;;28.27;46.12
8049;BME280;20935;42.660;23.342;2023-08-07T19:12:58;94452.91;;;28.26;46.07
8049;BME280;20935;42.660;23.342;2023-08-07T19:15:46;94460.44;;;28.26;46.07
8049;BME280;20935;42.660;23.342;2023-08-07T19:18:31;94463.94;;;28.26;46.13
8049;BME280;20935;42.660;23.342;2023-08-07T19:21:17;94461.19;;;28.26;46.32
8049;BME280;20935;42.660;23.342;2023-08-07T19:24:02;94459.69;;;28.25;46.55
8049;BME280;20935;42.660;23.342;2023-08-07T19:26:47;94438.91;;;28.24;47.14
8049;BME280;20935;42.660;23.342;2023-08-07T19:29:34;94452.91;;;28.26;47.16
8049;BME280;20935;42.660;23.342;2023-08-07T19:32:19;94445.38;;;28.27;47.16
8049;BME280;20935;42.660;23.342;2023-08-07T19:35:05;94448.66;;;28.25;47.24
8049;BME280;20935;42.660;23.342;2023-08-07T19:37:51;94457.66;;;28.26;47.32
8049;BME280;20935;42.660;23.342;2023-08-07T19:40:38;94465.41;;;28.27;47.16
8049;BME280;20935;42.660;23.342;2023-08-07T19:43:23;94489.69;;;28.29;47.10
8049;BME280;20935;42.660;23.342;2023-08-07T19:46:10;94497.97;;;28.29;47.90
8049;BME280;20935;42.660;23.342;2023-08-07T19:48:56;94511.00;;;28.28;47.81
8049;BME280;20935;42.660;23.342;2023-08-07T19:51:42;94543.31;;;28.28;47.61
8049;BME280;20935;42.660;23.342;2023-08-07T19:54:27;94534.28;;;28.27;47.71
8049;BME280;20935;42.660;23.342;2023-08-07T19:57:12;94514.25;;;28.27;47.82
8049;BME280;20935;42.660;23.342;2023-08-07T19:59:58;94539.59;;;28.25;47.74
8049;BME280;20935;42.660;23.342;2023-08-07T20:02:46;94552.09;;;28.26;47.56
8049;BME280;20935;42.660;23.342;2023-08-07T20:05:31;94541.09;;;28.26;48.31
8049;BME280;20935;42.660;23.342;2023-08-07T20:08:16;94516.28;;;28.26;48.42
8049;BME280;20935;42.660;23.342;2023-08-07T20:11:02;94530.78;;;28.27;47.56
8049;BME280;20935;42.660;23.342;2023-08-07T20:13:49;94550.06;;;28.27;47.62
8049;BME280;20935;42.660;23.342;2023-08-07T20:16:34;94543.84;;;28.26;48.07
8049;BME280;20935;42.660;23.342;2023-08-07T20:19:21;94546.59;;;28.26;48.22
8049;BME280;20935;42.660;23.342;2023-08-07T20:22:07;94549.34;;;28.26;48.34
8049;BME280;20935;42.660;23.342;2023-08-07T20:24:52;94532.06;;;28.26;48.29
8049;BME280;20935;42.660;23.342;2023-08-07T20:27:38;94539.81;;;28.27;48.56
8049;BME280;20935;42.660;23.342;2023-08-07T20:30:23;94557.84;;;28.28;48.34
8049;BME280;20935;42.660;23.342;2023-08-07T20:33:09;94539.06;;;28.27;48.79
8049;BME280;20935;42.660;23.342;2023-08-07T20:35:56;94535.78;;;28.28;48.85
8049;BME280;20935;42.660;23.342;2023-08-07T20:38:41;94529.03;;;28.29;49.11
8049;BME280;20935;42.660;23.342;2023-08-07T20:41:26;94530.28;;;28.28;48.70
8049;BME280;20935;42.660;23.342;2023-08-07T20:44:12;94534.28;;;28.27;48.86
8049;BME280;20935;42.660;23.342;2023-08-07T20:46:57;94537.78;;;28.28;48.89
8049;BME280;20935;42.660;23.342;2023-08-07T20:49:44;94530.28;;;28.28;49.04
8049;BME280;20935;42.660;23.342;2023-08-07T20:52:31;94531.53;;;28.27;49.30
8049;BME280;20935;42.660;23.342;2023-08-07T20:55:16;94539.31;;;28.29;49.32
8049;BME280;20935;42.660;23.342;2023-08-07T20:58:01;94540.56;;;28.28;49.87
8049;BME280;20935;42.660;23.342;2023-08-07T21:00:47;94543.84;;;28.26;49.45
8049;BME280;20935;42.660;23.342;2023-08-07T21:03:32;94551.34;;;28.26;49.88
8049;BME280;20935;42.660;23.342;2023-08-07T21:06:17;94572.66;;;28.25;50.07
8049;BME280;20935;42.660;23.342;2023-08-07T21:09:04;94588.19;;;28.23;50.12
8049;BME280;20935;42.660;23.342;2023-08-07T21:11:50;94590.44;;;28.24;49.76
8049;BME280;20935;42.660;23.342;2023-08-07T21:14:36;94607.47;;;28.23;49.99
8049;BME280;20935;42.660;23.342;2023-08-07T21:17:22;94614.00;;;28.20;50.15
8049;BME280;20935;42.660;23.342;2023-08-07T21:20:08;94615.25;;;28.19;50.17
8049;BME280;20935;42.660;23.342;2023-08-07T21:22:54;94617.03;;;28.16;50.92
8049;BME280;20935;42.660;23.342;2023-08-07T21:25:41;94609.81;;;28.13;50.60
8049;BME280;20935;42.660;23.342;2023-08-07T21:28:26;94608.56;;;28.14;50.90
8049;BME280;20935;42.660;23.342;2023-08-07T21:31:12;94608.56;;;28.14;50.79
8049;BME280;20935;42.660;23.342;2023-08-07T21:33:58;94611.31;;;28.14;50.75
8049;BME280;20935;42.660;23.342;2023-08-07T21:36:44;94596.78;;;28.14;50.58
8049;BME280;20935;42.660;23.342;2023-08-07T21:39:29;94616.06;;;28.14;50.30
8049;BME280;20935;42.660;23.342;2023-08-07T21:42:16;94614.06;;;28.14;50.25
8049;BME280;20935;42.660;23.342;2023-08-07T21:45:01;94623.03;;;28.15;50.31
8049;BME280;20935;42.660;23.342;2023-08-07T21:47:46;94634.81;;;28.15;49.92
8049;BME280;20935;42.660;23.342;2023-08-07T21:50:32;94620.81;;;28.13;50.07
8049;BME280;20935;42.660;23.342;2023-08-07T21:53:17;94622.31;;;28.14;49.56
8049;BME280;20935;42.660;23.342;2023-08-07T21:56:03;94619.56;;;28.14;49.23
8049;BME280;20935;42.660;23.342;2023-08-07T21:58:50;94623.56;;;28.13;49.72
8049;BME280;20935;42.660;23.342;2023-08-07T22:01:35;94624.81;;;28.12;49.87
8049;BME280;20935;42.660;23.342;2023-08-07T22:04:20;94631.84;;;28.13;48.83
8049;BME280;20935;42.660;23.342;2023-08-07T22:07:06;94624.81;;;28.12;48.89
8049;BME280;20935;42.660;23.342;2023-08-07T22:09:51;94616.56;;;28.12;48.96
8049;BME280;20935;42.660;23.342;2023-08-07T22:12:37;94617.81;;;28.11;48.83
8049;BME280;20935;42.660;23.342;2023-08-07T22:15:23;94604.78;;;28.12;48.84
8049;BME280;20935;42.660;23.342;2023-08-07T22:18:09;94597.81;;;28.11;48.75
8049;BME280;20935;42.660;23.342;2023-08-07T22:20:54;94598.53;;;28.11;48.97
8049;BME280;20935;42.660;23.342;2023-08-07T22:23:40;94600.56;;;28.11;48.38
8049;BME280;20935;42.660;23.342;2023-08-07T22:26:25;94606.78;;;28.11;48.92
8049;BME280;20935;42.660;23.342;2023-08-07T22:29:10;94604.78;;;28.12;48.30
8049;BME280;20935;42.660;23.342;2023-08-07T22:31:57;94611.59;;;28.11;48.32
8049;BME280;20935;42.660;23.342;2023-08-07T22:34:43;94618.56;;;28.12;48.59
8049;BME280;20935;42.660;23.342;2023-08-07T22:37:28;94623.31;;;28.11;48.27
8049;BME280;20935;42.660;23.342;2023-08-07T22:40:14;94628.09;;;28.11;48.56
8049;BME280;20935;42.660;23.342;2023-08-07T22:42:59;94637.09;;;28.11;48.19
8049;BME280;20935;42.660;23.342;2023-08-07T22:45:48;94660.41;;;28.10;47.99
8049;BME280;20935;42.660;23.342;2023-08-07T22:48:35;94648.38;;;28.08;48.29
8049;BME280;20935;42.660;23.342;2023-08-07T22:51:21;94652.66;;;28.09;48.03
8049;BME280;20935;42.660;23.342;2023-08-07T22:54:07;94639.88;;;28.06;47.90
8049;BME280;20935;42.660;23.342;2023-08-07T22:56:53;94627.84;;;28.03;47.44
8049;BME280;20935;42.660;23.342;2023-08-07T22:59:38;94631.88;;;28.02;47.63
8049;BME280;20935;42.660;23.342;2023-08-07T23:02:23;94635.88;;;28.01;47.22
8049;BME280;20935;42.660;23.342;2023-08-07T23:05:10;94639.16;;;27.99;47.53
8049;BME280;20935;42.660;23.342;2023-08-07T23:07:55;94645.41;;;28.00;47.28
8049;BME280;20935;42.660;23.342;2023-08-07T23:10:41;94647.94;;;27.98;47.78
8049;BME280;20935;42.660;23.342;2023-08-07T23:13:27;94647.41;;;27.99;47.98
8049;BME280;20935;42.660;23.342;2023-08-07T23:16:12;94638.38;;;27.99;47.56
8049;BME280;20935;42.660;23.342;2023-08-07T23:18:57;94632.88;;;27.99;48.11
8049;BME280;20935;42.660;23.342;2023-08-07T23:21:44;94630.13;;;27.99;47.92
8049;BME280;20935;42.660;23.342;2023-08-07T23:24:30;94635.63;;;27.99;47.62
8049;BME280;20935;42.660;23.342;2023-08-07T23:27:15;94631.41;;;27.98;48.11
8049;BME280;20935;42.660;23.342;2023-08-07T23:30:00;94611.38;;;27.97;48.12
8049;BME280;20935;42.660;23.342;2023-08-07T23:32:47;94604.63;;;27.98;47.82
8049;BME280;20935;42.660;23.342;2023-08-07T23:35:32;94614.88;;;27.98;48.28
8049;BME280;20935;42.660;23.342;2023-08-07T23:38:19;94613.38;;;27.97;48.33
8049;BME280;20935;42.660;23.342;2023-08-07T23:41:05;94607.88;;;27.97;47.82
8049;BME280;20935;42.660;23.342;2023-08-07T23:43:50;94607.13;;;27.96;47.68
8049;BME280;20935;42.660;23.342;2023-08-07T23:46:36;94613.38;;;27.97;47.89
8049;BME280;20935;42.660;23.342;2023-08-07T23:49:21;94618.88;;;27.97;47.59
8049;BME280;20935;42.660;23.342;2023-08-07T23:52:07;94614.63;;;27.96;47.61
8049;BME280;20935;42.660;23.342;2023-08-07T23:54:54;94618.63;;;27.95;48.30
8049;BME280;20935;42.660;23.342;2023-08-07T23:57:39;94604.13;;;27.94;48.26
